Time;durP1;ratioP1;P1;durP2;ratioP2;P2;SDS_P1;SDS_P2;PMS_P1;PMS_P2;Temp;Humidity;BMP_temperature;BMP_pressure;BME280_temperature;BME280_humidity;BME280_pressure;Samples;Min_cycle;Max_cycle;Signal;HPM_P1;HPM_P2
2021/07/04 00:01:43;;;;;;;22.25;13.98;;;;;;;18.35;72.77;100157.66;5046299;28;20025;-74
2021/07/04 00:04:08;;;;;;;21.70;12.55;;;;;;;18.36;72.99;100152.84;5024897;28;20103;-74
2021/07/04 00:06:34;;;;;;;19.05;11.85;;;;;;;18.34;73.35;100147.59;5037694;28;20601;-74
2021/07/04 00:08:59;;;;;;;20.00;11.48;;;;;;;18.34;73.28;100144.78;5035735;28;20040;-74
2021/07/04 00:11:25;;;;;;;20.48;11.25;;;;;;;18.31;73.54;100143.50;5036173;28;20034;-75
2021/07/04 00:13:51;;;;;;;19.42;11.48;;;;;;;18.30;73.46;100144.69;5034812;28;20038;-78
2021/07/04 00:16:16;;;;;;;24.02;14.30;;;;;;;18.24;73.32;100140.44;5035491;28;20026;-75
2021/07/04 00:18:42;;;;;;;23.63;13.52;;;;;;;18.24;73.29;100139.63;5035757;28;20096;-74
2021/07/04 00:21:07;;;;;;;22.70;13.57;;;;;;;18.22;73.20;100139.16;5036018;28;20030;-74
2021/07/04 00:23:33;;;;;;;20.92;11.65;;;;;;;18.19;73.69;100149.16;5036665;28;20083;-74
2021/07/04 00:25:59;;;;;;;19.17;11.02;;;;;;;18.20;73.87;100147.16;5034880;28;20033;-73
2021/07/04 00:28:24;;;;;;;22.38;12.10;;;;;;;18.16;73.92;100138.59;5036566;28;20029;-74
2021/07/04 00:30:53;;;;;;;27.05;11.90;;;;;;;18.14;74.51;100129.72;5039199;28;20021;-74
2021/07/04 00:33:19;;;;;;;20.90;13.07;;;;;;;18.12;74.42;100126.44;5042475;28;20021;-74
2021/07/04 00:35:44;;;;;;;22.88;12.57;;;;;;;18.08;74.11;100129.16;5036257;28;20075;-74
2021/07/04 00:38:10;;;;;;;19.92;10.98;;;;;;;18.09;74.87;100127.16;5035426;28;20041;-73
2021/07/04 00:40:36;;;;;;;22.70;11.82;;;;;;;18.05;74.34;100131.81;5018024;28;20038;-74
2021/07/04 00:43:03;;;;;;;19.80;10.82;;;;;;;18.03;74.31;100128.56;5019017;28;20045;-74
2021/07/04 00:45:29;;;;;;;17.52;10.70;;;;;;;17.99;74.82;100120.00;5018577;28;20026;-75
2021/07/04 00:47:56;;;;;;;15.82;9.40;;;;;;;17.96;74.42;100131.13;4978174;28;20024;-73
2021/07/04 00:50:23;;;;;;;21.23;9.35;;;;;;;17.94;75.42;100119.44;5020629;28;20100;-73
2021/07/04 00:52:48;;;;;;;18.02;8.98;;;;;;;17.90;75.39;100110.09;5034699;28;20057;-73
2021/07/04 00:55:15;;;;;;;17.98;8.93;;;;;;;17.90;75.89;100112.91;5017866;28;20030;-73
2021/07/04 00:57:41;;;;;;;14.70;7.55;;;;;;;17.83;76.71;100113.50;5035250;28;20224;-74
2021/07/04 01:00:08;;;;;;;16.60;7.95;;;;;;;17.81;76.44;100115.84;5033247;28;20497;-74
2021/07/04 01:02:34;;;;;;;15.55;8.18;;;;;;;17.81;76.07;100115.84;5018320;28;20025;-73
2021/07/04 01:04:59;;;;;;;15.52;7.90;;;;;;;17.81;75.97;100113.03;5036238;28;20040;-73
2021/07/04 01:07:25;;;;;;;16.73;8.20;;;;;;;17.79;75.93;100112.56;5034469;28;20097;-73
2021/07/04 01:09:50;;;;;;;15.57;8.18;;;;;;;17.78;76.20;100105.28;5001940;28;20034;-73
2021/07/04 01:12:16;;;;;;;13.43;7.13;;;;;;;17.78;76.83;100110.91;5017549;28;20029;-73
2021/07/04 01:14:41;;;;;;;13.93;7.10;;;;;;;17.72;76.51;100106.66;5017872;28;20709;-73
2021/07/04 01:17:07;;;;;;;13.88;7.82;;;;;;;17.73;75.90;100100.72;4993590;28;20030;-73
2021/07/04 01:19:33;;;;;;;13.90;7.10;;;;;;;17.73;76.33;100097.91;5027906;28;20465;-73
2021/07/04 01:21:59;;;;;;;13.75;6.82;;;;;;;17.70;77.97;100098.59;5018263;28;20056;-73
2021/07/04 01:24:25;;;;;;;14.10;6.95;;;;;;;17.69;76.82;100087.72;5001808;28;20025;-73
2021/07/04 01:26:50;;;;;;;13.50;6.63;;;;;;;17.69;77.06;100091.38;5018997;28;20058;-73
2021/07/04 01:29:17;;;;;;;14.70;7.13;;;;;;;17.70;77.80;100095.00;5047049;28;20033;-74
2021/07/04 01:31:42;;;;;;;15.75;6.65;;;;;;;17.70;76.75;100089.38;5013355;28;20029;-74
2021/07/04 01:34:08;;;;;;;13.32;6.80;;;;;;;17.70;76.84;100092.19;5001639;28;20448;-74
2021/07/04 01:36:34;;;;;;;10.85;5.93;;;;;;;17.69;77.05;100082.94;5034628;28;20037;-74
2021/07/04 01:39:00;;;;;;;12.32;6.38;;;;;;;17.68;76.25;100084.09;5034670;28;20068;-74
2021/07/04 01:41:26;;;;;;;12.38;6.45;;;;;;;17.69;76.99;100080.13;5034302;28;20018;-74
2021/07/04 01:43:52;;;;;;;12.27;5.97;;;;;;;17.67;77.13;100071.22;5034271;28;20053;-73
2021/07/04 01:46:17;;;;;;;9.95;5.43;;;;;;;17.66;77.14;100075.19;5034420;28;20021;-72
2021/07/04 01:48:43;;;;;;;11.73;6.78;;;;;;;17.64;77.24;100067.13;5035327;28;20034;-74
2021/07/04 01:51:08;;;;;;;14.65;7.43;;;;;;;17.65;77.10;100076.38;5033922;28;20042;-73
2021/07/04 01:53:35;;;;;;;13.65;7.55;;;;;;;17.63;77.27;100068.31;5018072;28;20032;-73
2021/07/04 01:56:04;;;;;;;13.52;7.63;;;;;;;17.62;77.60;100072.28;5034948;28;20489;-73
2021/07/04 01:58:30;;;;;;;15.68;7.40;;;;;;;17.60;77.22;100071.00;5034145;28;20561;-73
2021/07/04 02:00:56;;;;;;;12.95;7.30;;;;;;;17.59;77.25;100063.75;5034372;28;20091;-73
2021/07/04 02:03:21;;;;;;;13.23;6.90;;;;;;;17.58;77.21;100071.38;5029731;28;20641;-73
2021/07/04 02:05:47;;;;;;;14.98;7.20;;;;;;;17.55;77.71;100068.41;5026513;28;20036;-73
2021/07/04 02:08:12;;;;;;;13.20;6.47;;;;;;;17.54;77.45;100056.38;5015726;28;20653;-73
2021/07/04 02:10:38;;;;;;;12.45;5.88;;;;;;;17.51;77.09;100062.69;5080373;28;20025;-73
2021/07/04 02:13:04;;;;;;;16.17;6.50;;;;;;;17.50;77.12;100055.44;5027618;28;20367;-73
2021/07/04 02:15:31;;;;;;;15.18;6.80;;;;;;;17.49;77.47;100048.19;5017962;28;20385;-73
2021/07/04 02:18:00;;;;;;;12.50;6.00;;;;;;;17.50;77.86;100044.22;5035251;28;20036;-73
2021/07/04 02:20:35;;;;;;;12.65;6.10;;;;;;;17.46;77.85;100053.69;5017392;28;20406;-73
2021/07/04 02:23:08;;;;;;;15.18;5.53;;;;;;;17.45;78.54;100041.66;5018390;28;20037;-72
2021/07/04 02:25:35;;;;;;;14.07;5.45;;;;;;;17.44;77.56;100040.03;5035030;28;20430;-73
2021/07/04 02:28:01;;;;;;;13.05;5.93;;;;;;;17.45;77.62;100052.88;5047339;28;20033;-73
2021/07/04 02:30:27;;;;;;;12.27;5.57;;;;;;;17.45;78.96;100049.25;5017847;28;20079;-74
2021/07/04 02:32:52;;;;;;;12.77;5.95;;;;;;;17.42;77.98;100057.19;5040384;28;20036;-73
2021/07/04 02:35:18;;;;;;;10.07;5.50;;;;;;;17.41;78.58;100055.56;5035428;28;20040;-73
2021/07/04 02:37:44;;;;;;;12.10;5.55;;;;;;;17.41;78.56;100044.34;5018554;28;20079;-73
2021/07/04 02:40:10;;;;;;;10.68;5.75;;;;;;;17.39;79.07;100048.69;5037748;28;20029;-73
2021/07/04 02:42:36;;;;;;;11.55;5.53;;;;;;;17.36;78.54;100043.78;5005034;28;20089;-73
2021/07/04 02:45:02;;;;;;;12.63;5.43;;;;;;;17.37;78.42;100034.16;5037850;28;20029;-73
2021/07/04 02:47:28;;;;;;;9.25;4.80;;;;;;;17.36;78.73;100030.53;5038738;28;20037;-73
2021/07/04 02:49:54;;;;;;;10.07;4.82;;;;;;;17.35;78.87;100025.28;5037694;28;20025;-73
2021/07/04 02:52:19;;;;;;;10.27;4.47;;;;;;;17.35;78.40;100028.88;5021052;28;20053;-73
2021/07/04 02:54:45;;;;;;;9.07;4.70;;;;;;;17.33;79.26;100027.63;5038620;28;20033;-73
2021/07/04 02:57:10;;;;;;;12.38;4.70;;;;;;;17.31;77.63;100027.97;5033150;28;20719;-73
2021/07/04 02:59:36;;;;;;;9.77;4.95;;;;;;;17.31;78.48;100027.16;5037875;28;20037;-73
2021/07/04 03:02:01;;;;;;;9.55;4.63;;;;;;;17.32;78.45;100015.56;5004832;28;20047;-73
2021/07/04 03:04:27;;;;;;;7.40;4.35;;;;;;;17.30;78.87;100011.47;4997063;28;20504;-73
2021/07/04 03:06:54;;;;;;;7.80;4.22;;;;;;;17.29;78.77;100010.66;5031558;28;20025;-73
2021/07/04 03:09:20;;;;;;;6.82;3.97;;;;;;;17.29;79.14;100007.03;5005837;28;20029;-73
2021/07/04 03:11:46;;;;;;;11.27;4.40;;;;;;;17.28;78.99;99997.81;5032902;28;20033;-73
2021/07/04 03:14:11;;;;;;;8.48;4.28;;;;;;;17.27;78.39;99995.34;5037149;28;20033;-73
2021/07/04 03:16:37;;;;;;;11.95;4.55;;;;;;;17.25;79.19;99997.69;5038454;28;20026;-73
2021/07/04 03:19:02;;;;;;;9.18;4.80;;;;;;;17.21;78.65;99991.94;5020755;28;20040;-73
2021/07/04 03:21:28;;;;;;;11.07;5.07;;;;;;;17.22;79.24;99993.59;5004305;28;20029;-73
2021/07/04 03:23:53;;;;;;;7.25;3.97;;;;;;;17.23;78.56;99989.63;5038430;28;20031;-73
2021/07/04 03:26:20;;;;;;;9.63;3.80;;;;;;;17.22;78.77;99992.75;5036848;28;20109;-73
2021/07/04 03:28:46;;;;;;;7.75;3.97;;;;;;;17.23;78.94;100000.03;5037159;28;20036;-73
2021/07/04 03:31:11;;;;;;;7.50;3.92;;;;;;;17.20;79.99;99993.13;5025438;28;20025;-73
2021/07/04 03:33:37;;;;;;;7.15;3.92;;;;;;;17.18;79.25;100004.69;5036945;28;20025;-73
2021/07/04 03:36:02;;;;;;;7.20;3.67;;;;;;;17.18;79.43;99993.47;5037947;28;20103;-73
2021/07/04 03:38:28;;;;;;;5.43;3.60;;;;;;;17.13;78.38;100004.94;5020426;28;20026;-73
2021/07/04 03:40:53;;;;;;;8.52;4.00;;;;;;;17.15;78.98;99996.16;5036492;28;20029;-73
2021/07/04 03:43:19;;;;;;;8.68;4.28;;;;;;;17.13;79.31;100002.16;5036857;28;20032;-73
2021/07/04 03:45:44;;;;;;;10.07;4.10;;;;;;;17.11;78.87;100001.66;5020004;28;20034;-73
2021/07/04 03:48:10;;;;;;;10.07;3.63;;;;;;;17.09;78.77;100006.81;5019929;28;20044;-73
2021/07/04 03:50:35;;;;;;;7.63;4.03;;;;;;;17.07;79.61;100013.94;5003496;28;20033;-73
2021/07/04 03:53:02;;;;;;;10.27;4.05;;;;;;;17.08;78.99;100009.97;5038026;28;20053;-73
2021/07/04 03:55:28;;;;;;;8.27;3.58;;;;;;;17.06;80.03;100012.31;5036562;28;20108;-73
2021/07/04 03:57:54;;;;;;;9.85;3.70;;;;;;;17.04;80.85;100009.03;5037995;28;20079;-73
2021/07/04 04:00:19;;;;;;;7.20;3.28;;;;;;;17.04;80.22;100011.81;5037551;28;20041;-73
2021/07/04 04:02:45;;;;;;;8.38;3.65;;;;;;;17.03;80.67;100019.44;5036297;28;20040;-73
2021/07/04 04:05:11;;;;;;;7.55;3.60;;;;;;;17.02;80.40;100006.59;5024097;28;20064;-73
2021/07/04 04:07:37;;;;;;;7.22;4.03;;;;;;;17.02;80.07;100012.19;5036588;28;20030;-73
2021/07/04 04:10:06;;;;;;;9.23;3.85;;;;;;;17.02;80.59;100011.34;5009879;28;20527;-73
2021/07/04 04:12:32;;;;;;;6.25;3.80;;;;;;;17.02;79.69;100009.38;5037654;28;20035;-73
2021/07/04 04:15:00;;;;;;;7.60;3.78;;;;;;;17.02;81.50;100017.81;5036117;28;20030;-73
2021/07/04 04:17:28;;;;;;;6.03;3.65;;;;;;;17.04;80.27;100009.03;5020207;28;20034;-73
2021/07/04 04:19:54;;;;;;;7.50;3.40;;;;;;;17.04;80.22;100009.03;5036040;28;20030;-73
2021/07/04 04:22:20;;;;;;;7.82;3.60;;;;;;;17.06;80.05;100006.69;5003528;28;20029;-73
2021/07/04 04:24:45;;;;;;;7.95;3.58;;;;;;;17.07;79.64;100002.72;5036904;28;20037;-73
2021/07/04 04:27:11;;;;;;;10.10;3.85;;;;;;;17.05;80.94;100005.03;5035925;28;20030;-73
2021/07/04 04:29:36;;;;;;;6.60;3.03;;;;;;;17.03;79.92;100016.63;5037020;28;20508;-73
2021/07/04 04:32:02;;;;;;;6.22;3.28;;;;;;;17.03;81.44;100008.22;5007990;28;20556;-73
2021/07/04 04:34:28;;;;;;;5.75;3.30;;;;;;;17.07;80.96;100014.75;5019446;28;20080;-73
2021/07/04 04:36:53;;;;;;;9.18;3.47;;;;;;;17.07;80.34;100013.94;5019467;28;20044;-73
2021/07/04 04:39:20;;;;;;;7.72;3.17;;;;;;;17.08;81.09;100009.97;5030673;28;20026;-73
2021/07/04 04:41:47;;;;;;;7.63;3.30;;;;;;;17.07;80.25;100002.72;5002861;28;20022;-73
2021/07/04 04:44:12;;;;;;;6.13;3.33;;;;;;;17.06;80.48;100010.31;5036768;28;20032;-73
2021/07/04 04:46:38;;;;;;;6.60;3.28;;;;;;;17.07;80.26;100008.31;5036656;28;20029;-73
2021/07/04 04:49:03;;;;;;;7.68;3.38;;;;;;;17.06;80.36;100001.91;5035362;28;20026;-73
2021/07/04 04:51:29;;;;;;;8.23;3.50;;;;;;;17.10;80.93;100002.00;5002479;28;20042;-73
2021/07/04 04:53:55;;;;;;;8.40;3.72;;;;;;;17.09;81.75;100000.38;5003053;28;20102;-74
2021/07/04 04:56:21;;;;;;;7.15;3.28;;;;;;;17.08;81.96;99999.56;5025376;28;20026;-73
2021/07/04 04:58:46;;;;;;;5.97;3.13;;;;;;;17.12;81.83;99994.06;5015685;28;20026;-73
2021/07/04 05:01:12;;;;;;;7.22;3.45;;;;;;;17.10;81.02;99985.97;5031466;28;20033;-73
2021/07/04 05:03:37;;;;;;;7.00;2.92;;;;;;;17.12;81.54;99989.25;5039810;28;20525;-73
2021/07/04 05:06:03;;;;;;;7.85;3.05;;;;;;;17.14;81.04;99977.72;5022631;28;20104;-73
2021/07/04 05:08:30;;;;;;;5.43;3.00;;;;;;;17.15;81.40;99982.94;5035597;28;20040;-73
2021/07/04 05:10:55;;;;;;;8.05;3.10;;;;;;;17.12;82.02;99980.03;5034852;28;20057;-73
2021/07/04 05:13:21;;;;;;;5.93;2.92;;;;;;;17.13;82.40;99979.69;5035155;28;20536;-73
2021/07/04 05:15:46;;;;;;;4.20;2.65;;;;;;;17.14;81.25;99981.31;5002227;28;20056;-73
2021/07/04 05:18:12;;;;;;;6.72;2.78;;;;;;;17.15;81.74;99971.72;5002213;28;20030;-73
2021/07/04 05:20:37;;;;;;;6.00;2.90;;;;;;;17.14;80.94;99975.72;4986983;28;20032;-73
2021/07/04 05:23:03;;;;;;;6.05;2.70;;;;;;;17.14;81.83;99984.13;5032908;28;20033;-73
2021/07/04 05:25:29;;;;;;;5.72;2.83;;;;;;;17.18;81.66;99979.44;5002260;28;20029;-73
2021/07/04 05:27:54;;;;;;;6.05;2.97;;;;;;;17.17;81.59;99979.81;5034901;28;20026;-73
2021/07/04 05:30:20;;;;;;;5.95;2.65;;;;;;;17.18;81.66;99979.44;5036252;28;20026;-73
2021/07/04 05:32:45;;;;;;;6.55;2.78;;;;;;;17.19;81.87;99983.09;5039722;28;20033;-73
2021/07/04 05:35:11;;;;;;;5.28;2.53;;;;;;;17.14;81.25;99986.13;5034674;28;20040;-73
2021/07/04 05:37:37;;;;;;;4.57;2.45;;;;;;;17.14;82.07;99972.91;5018244;28;20025;-73
2021/07/04 05:40:03;;;;;;;7.07;2.67;;;;;;;17.12;81.74;99966.81;5001800;28;20029;-73
2021/07/04 05:42:29;;;;;;;3.90;2.35;;;;;;;17.14;81.60;99963.69;5034746;28;20076;-73
2021/07/04 05:44:55;;;;;;;6.10;2.50;;;;;;;17.14;81.77;99970.09;5034693;28;20034;-73
2021/07/04 05:47:20;;;;;;;4.30;2.22;;;;;;;17.15;81.70;99968.09;5018080;28;20033;-73
2021/07/04 05:49:46;;;;;;;5.90;2.60;;;;;;;17.12;83.16;99957.59;5001735;28;20036;-73
2021/07/04 05:52:11;;;;;;;8.73;2.58;;;;;;;17.12;82.68;99955.59;4994922;28;20042;-73
2021/07/04 05:54:37;;;;;;;4.15;2.30;;;;;;;17.13;83.11;99964.81;5018264;28;20497;-73
2021/07/04 05:57:06;;;;;;;5.72;2.50;;;;;;;17.13;82.74;99956.41;4985563;28;20107;-74
2021/07/04 05:59:34;;;;;;;6.43;2.90;;;;;;;17.14;81.76;99958.88;4986731;28;20528;-73
2021/07/04 06:02:00;;;;;;;7.50;2.72;;;;;;;17.10;85.02;99962.72;4985418;28;20116;-73
2021/07/04 06:04:26;;;;;;;4.03;2.30;;;;;;;17.15;82.45;99957.69;4978423;28;20376;-73
2021/07/04 06:06:52;;;;;;;5.00;2.60;;;;;;;17.14;83.90;99961.69;5028325;28;20034;-73
2021/07/04 06:09:18;;;;;;;7.57;2.75;;;;;;;17.16;84.87;99969.72;4984547;28;20029;-73
2021/07/04 06:11:44;;;;;;;5.88;2.00;;;;;;;17.19;83.23;99966.25;5001059;28;20029;-73
2021/07/04 06:14:10;;;;;;;3.83;2.30;;;;;;;17.20;82.79;99963.06;5036909;28;20068;-73
2021/07/04 06:16:35;;;;;;;4.55;2.40;;;;;;;17.26;82.29;99965.66;5038946;28;20027;-73
2021/07/04 06:19:01;;;;;;;3.75;2.10;;;;;;;17.27;82.76;99962.47;5022153;28;20432;-73
2021/07/04 06:21:26;;;;;;;4.53;2.30;;;;;;;17.32;83.17;99953.81;5055148;28;20075;-73
2021/07/04 06:23:52;;;;;;;6.63;2.40;;;;;;;17.34;82.71;99937.44;5058376;28;20032;-73
2021/07/04 06:26:17;;;;;;;3.58;2.15;;;;;;;17.39;82.07;99951.25;5059106;28;20033;-73
2021/07/04 06:28:43;;;;;;;4.80;2.25;;;;;;;17.45;82.14;99948.19;5041553;28;20033;-74
2021/07/04 06:31:08;;;;;;;6.88;2.67;;;;;;;17.49;81.97;99946.31;5021911;28;20034;-74
2021/07/04 06:33:34;;;;;;;7.63;2.95;;;;;;;17.56;82.01;99947.34;5005276;28;20017;-68
2021/07/04 06:35:59;;;;;;;7.10;3.30;;;;;;;17.59;83.28;99941.03;5038012;28;20029;-69
2021/07/04 06:38:25;;;;;;;4.57;2.92;;;;;;;17.61;83.59;99933.06;5021627;28;20063;-68
2021/07/04 06:40:50;;;;;;;8.40;3.17;;;;;;;17.69;83.29;99934.09;5021261;28;20055;-68
2021/07/04 06:43:16;;;;;;;8.05;2.97;;;;;;;17.77;83.57;99932.31;5038328;28;20037;-68
2021/07/04 06:45:41;;;;;;;4.93;2.30;;;;;;;17.86;83.68;99938.63;5004916;28;20033;-70
2021/07/04 06:48:07;;;;;;;5.60;2.53;;;;;;;17.93;83.92;99924.78;5021448;28;20049;-70
2021/07/04 06:50:32;;;;;;;7.05;2.45;;;;;;;18.02;83.23;99931.06;5021203;28;20029;-70
2021/07/04 06:52:58;;;;;;;6.13;2.08;;;;;;;18.09;83.15;99931.25;5007849;28;20042;-70
2021/07/04 06:55:24;;;;;;;5.43;2.22;;;;;;;18.19;83.43;99935.56;5021042;28;20052;-71
2021/07/04 06:57:50;;;;;;;6.30;1.88;;;;;;;18.24;83.30;99926.84;5037905;28;20033;-70
2021/07/04 07:00:16;;;;;;;5.50;1.63;;;;;;;18.32;82.79;99927.84;5021260;28;20498;-71
2021/07/04 07:02:42;;;;;;;3.75;1.60;;;;;;;18.39;82.75;99930.88;5004714;28;20047;-71
2021/07/04 07:05:09;;;;;;;3.72;1.55;;;;;;;18.46;82.86;99931.03;5008022;28;20509;-70
2021/07/04 07:07:34;;;;;;;2.55;1.42;;;;;;;18.56;82.64;99934.53;5008160;28;20033;-69
2021/07/04 07:10:00;;;;;;;4.43;1.63;;;;;;;18.64;82.83;99939.97;5004420;28;20083;-67
2021/07/04 07:12:25;;;;;;;5.78;1.48;;;;;;;18.72;83.01;99929.69;5020945;28;20029;-67
2021/07/04 07:14:51;;;;;;;4.75;1.55;;;;;;;18.79;82.97;99929.09;5020850;28;20088;-67
2021/07/04 07:17:17;;;;;;;6.68;2.08;;;;;;;18.87;81.90;99931.72;5020828;28;20029;-67
2021/07/04 07:19:43;;;;;;;7.05;3.13;;;;;;;18.98;82.10;99932.81;5036466;28;20052;-67
2021/07/04 07:22:08;;;;;;;7.15;3.65;;;;;;;19.11;82.20;99929.88;5023574;28;20029;-67
2021/07/04 07:24:34;;;;;;;9.00;3.30;;;;;;;19.25;81.83;99923.75;5038659;28;20052;-67
2021/07/04 07:27:00;;;;;;;6.05;2.72;;;;;;;19.35;81.87;99926.81;5027891;28;20033;-67
2021/07/04 07:29:25;;;;;;;7.38;2.28;;;;;;;19.47;82.92;99925.88;5040462;28;20026;-67
2021/07/04 07:31:51;;;;;;;3.00;1.65;;;;;;;19.58;82.18;99917.66;5033998;28;20025;-67
2021/07/04 07:34:16;;;;;;;8.00;1.95;;;;;;;19.66;81.90;99911.03;5020327;28;20018;-67
2021/07/04 07:36:42;;;;;;;3.05;1.42;;;;;;;19.75;81.71;99922.06;5011683;28;20028;-67
2021/07/04 07:39:07;;;;;;;4.53;1.80;;;;;;;19.81;81.45;99920.63;5042628;28;20029;-68
2021/07/04 07:41:33;;;;;;;3.80;2.10;;;;;;;19.89;81.40;99918.72;5044282;28;20028;-67
2021/07/04 07:43:59;;;;;;;12.80;7.63;;;;;;;19.93;81.57;99917.63;5026115;28;20030;-67
2021/07/04 07:46:24;;;;;;;6.88;3.90;;;;;;;19.98;81.30;99914.53;5017248;28;20029;-67
2021/07/04 07:48:50;;;;;;;6.70;3.78;;;;;;;19.98;81.41;99914.53;5035724;28;20026;-67
2021/07/04 07:51:16;;;;;;;4.65;2.83;;;;;;;20.01;81.93;99910.94;5019619;28;20042;-67
2021/07/04 07:53:42;;;;;;;5.97;2.30;;;;;;;20.02;82.04;99904.13;5019615;28;20041;-67
2021/07/04 07:56:07;;;;;;;5.97;2.08;;;;;;;20.06;81.67;99907.03;5036621;28;20040;-68
2021/07/04 07:58:33;;;;;;;5.90;1.77;;;;;;;20.08;82.21;99901.81;5021015;28;20486;-67
2021/07/04 08:00:58;;;;;;;4.47;1.65;;;;;;;20.10;82.25;99902.25;5031897;28;20034;-67
2021/07/04 08:03:24;;;;;;;5.15;2.05;;;;;;;20.14;81.68;99897.50;5015123;28;20030;-67
2021/07/04 08:05:49;;;;;;;4.85;1.90;;;;;;;20.15;82.13;99896.31;4998485;28;20032;-67
2021/07/04 08:08:15;;;;;;;5.30;1.98;;;;;;;20.21;81.48;99894.00;5035940;28;20053;-67
2021/07/04 08:10:40;;;;;;;5.10;1.60;;;;;;;20.24;81.44;99881.97;5035720;28;20044;-67
2021/07/04 08:13:06;;;;;;;4.72;1.80;;;;;;;20.31;81.87;99884.94;5017221;28;20026;-67
2021/07/04 08:15:32;;;;;;;5.75;2.00;;;;;;;20.38;81.99;99875.78;5051236;28;20033;-72
2021/07/04 08:22:49;;;;;;;8.88;5.28;;;;;;;20.59;79.93;99875.34;4296286;28;20097;-71
2021/07/04 08:25:14;;;;;;;9.40;4.80;;;;;;;20.67;79.54;99872.31;5023491;28;20033;-71
2021/07/04 08:27:40;;;;;;;10.07;4.75;;;;;;;20.77;79.45;99864.38;5037558;28;20033;-71
2021/07/04 08:30:07;;;;;;;10.93;4.20;;;;;;;20.87;79.99;99873.03;5035407;28;20030;-73
2021/07/04 08:32:33;;;;;;;16.80;6.72;;;;;;;20.96;78.52;99855.81;5036844;28;20022;-70
2021/07/04 08:34:58;;;;;;;17.27;7.05;;;;;;;21.05;78.09;99859.16;5027354;28;20509;-71
2021/07/04 08:37:24;;;;;;;13.45;5.82;;;;;;;21.12;77.90;99867.75;5019786;28;20029;-71
2021/07/04 08:39:49;;;;;;;8.55;3.83;;;;;;;21.20;78.52;99857.34;5038978;28;20029;-71
2021/07/04 08:42:17;;;;;;;7.72;3.42;;;;;;;21.26;78.20;99860.69;5060055;28;20042;-71
2021/07/04 08:44:49;;;;;;;7.28;3.17;;;;;;;21.30;78.35;99862.34;5040638;28;20026;-71
2021/07/04 08:47:18;;;;;;;5.90;2.50;;;;;;;21.31;77.97;99857.50;5034405;28;20036;-71
2021/07/04 08:49:45;;;;;;;8.48;2.63;;;;;;;21.29;78.15;99868.38;5041483;28;20016;-70
2021/07/04 08:52:11;;;;;;;27.90;16.10;;;;;;;21.27;78.39;99860.28;5039457;28;20021;-70
2021/07/04 08:54:37;;;;;;;13.70;8.30;;;;;;;21.24;78.40;99857.41;5022268;28;20068;-70
2021/07/04 08:57:08;;;;;;;9.95;6.03;;;;;;;21.19;79.10;99853.72;5021831;28;20021;-70
2021/07/04 08:59:38;;;;;;;9.63;4.43;;;;;;;21.18;79.14;99856.94;5005621;28;20025;-71
2021/07/04 09:02:04;;;;;;;9.95;3.78;;;;;;;21.16;79.32;99857.31;5003559;28;20029;-70
2021/07/04 09:04:29;;;;;;;9.30;4.35;;;;;;;21.20;80.15;99846.91;5016936;28;20036;-71
2021/07/04 09:06:56;;;;;;;9.27;4.03;;;;;;;21.25;80.43;99825.97;5051064;28;20033;-73
2021/07/04 09:09:27;;;;;;;8.80;3.45;;;;;;;21.40;80.03;99827.00;5019820;28;20027;-73
2021/07/04 09:12:02;;;;;;;9.75;3.08;;;;;;;21.67;81.08;99818.44;5020546;28;20028;-71
2021/07/04 09:14:34;;;;;;;7.50;2.58;;;;;;;21.98;79.91;99826.47;5036588;28;20087;-72
2021/07/04 09:17:00;;;;;;;5.75;2.03;;;;;;;22.29;78.27;99816.69;5044474;28;20116;-73
2021/07/04 09:19:25;;;;;;;7.88;3.65;;;;;;;22.60;77.06;99808.06;5055279;28;20036;-73
2021/07/04 09:21:58;;;;;;;10.70;4.43;;;;;;;22.93;76.21;99815.56;5004385;28;20029;-74
2021/07/04 09:24:24;;;;;;;10.25;3.17;;;;;;;23.21;75.09;99814.94;5054404;28;20518;-73
2021/07/04 09:26:50;;;;;;;7.22;2.53;;;;;;;23.52;74.36;99815.50;5037125;28;20108;-74
2021/07/04 09:29:16;;;;;;;6.88;2.22;;;;;;;23.72;73.15;99805.47;5024702;28;20040;-74
2021/07/04 09:31:41;;;;;;;7.45;2.33;;;;;;;23.96;72.63;99803.91;5065060;28;20055;-74
2021/07/04 09:34:10;;;;;;;7.18;1.67;;;;;;;24.15;71.36;99811.19;5030182;28;20124;-73
2021/07/04 09:36:37;;;;;;;5.45;2.20;;;;;;;24.33;70.75;99796.25;5001827;28;20112;-72
2021/07/04 09:39:19;;;;;;;7.13;1.90;;;;;;;24.53;70.81;99797.47;5036658;28;20067;-73
2021/07/04 09:42:08;;;;;;;6.30;2.00;;;;;;;24.73;69.09;99798.66;5054313;28;20109;-73
2021/07/04 09:44:33;;;;;;;6.00;1.70;;;;;;;24.93;68.79;99801.06;5037579;28;20036;-73
2021/07/04 09:47:19;;;;;;;6.90;2.15;;;;;;;25.12;68.50;99800.59;5054028;28;20049;-73
2021/07/04 09:49:48;;;;;;;8.90;3.58;;;;;;;25.25;69.04;99791.69;5043303;28;20036;-72
2021/07/04 09:52:19;;;;;;;7.25;3.20;;;;;;;25.32;67.25;99814.38;5053941;28;20029;-73
2021/07/04 09:55:01;;;;;;;10.13;3.20;;;;;;;25.14;67.44;99835.13;5054029;28;20033;-72
2021/07/04 09:57:27;;;;;;;7.68;2.05;;;;;;;24.94;67.15;99851.78;5012467;28;20025;-73
2021/07/04 10:00:15;;;;;;;7.55;1.80;;;;;;;24.52;66.81;99847.75;5037606;28;20032;-72
2021/07/04 10:02:41;;;;;;;18.15;8.73;;;;;;;24.22;67.43;99844.47;5038083;28;20139;-73
2021/07/04 10:05:14;;;;;;;10.73;5.03;;;;;;;24.04;68.27;99841.56;5021123;28;20481;-72
2021/07/04 10:07:39;;;;;;;5.78;3.10;;;;;;;23.79;69.91;99838.66;5037380;28;20052;-73
2021/07/04 10:10:05;;;;;;;4.97;2.80;;;;;;;23.71;70.08;99845.53;5052533;28;20033;-73
2021/07/04 10:12:30;;;;;;;4.90;2.28;;;;;;;23.55;71.31;99841.00;5018454;28;20029;-73
2021/07/04 10:14:56;;;;;;;2.78;1.70;;;;;;;23.42;71.87;99843.38;5037109;28;20063;-72
2021/07/04 10:17:22;;;;;;;2.17;1.38;;;;;;;23.35;73.75;99834.84;5020509;28;20051;-72
2021/07/04 10:19:48;;;;;;;5.05;1.30;;;;;;;23.36;74.92;99839.28;5037272;28;20429;-73
2021/07/04 10:22:13;;;;;;;5.13;1.70;;;;;;;23.42;76.71;99846.19;5036842;28;20052;-74
2021/07/04 10:24:39;;;;;;;2.08;1.20;;;;;;;23.52;76.23;99841.00;5036909;28;20048;-72
2021/07/04 10:27:05;;;;;;;5.40;3.25;;;;;;;23.56;73.72;99848.28;5036630;28;20427;-72
2021/07/04 10:29:30;;;;;;;23.58;13.65;;;;;;;23.60;71.98;99862.50;5036933;28;20033;-72
2021/07/04 10:32:09;;;;;;;18.40;11.98;;;;;;;23.62;71.41;99857.22;5020327;28;20048;-72
2021/07/04 10:34:44;;;;;;;21.67;14.00;;;;;;;23.66;70.89;99866.56;5034049;28;20117;-72
2021/07/04 10:37:09;;;;;;;17.60;11.75;;;;;;;23.70;70.37;99858.88;5031335;28;20025;-71
2021/07/04 10:39:35;;;;;;;14.73;8.70;;;;;;;23.76;69.99;99862.16;5053442;28;20431;-71
2021/07/04 10:42:03;;;;;;;14.90;7.32;;;;;;;23.82;70.01;99861.38;5020321;28;20025;-71
2021/07/04 10:44:43;;;;;;;8.82;5.10;;;;;;;23.94;69.40;99862.22;5054657;28;20681;-71
2021/07/04 10:47:35;;;;;;;8.05;4.70;;;;;;;24.05;68.94;99863.06;5036788;28;20078;-71
2021/07/04 10:50:12;;;;;;;8.30;3.70;;;;;;;24.24;68.58;99861.91;5062208;28;20108;-71
2021/07/04 10:52:48;;;;;;;5.85;2.70;;;;;;;24.39;68.17;99869.19;5036836;28;20025;-72
2021/07/04 10:55:14;;;;;;;5.38;2.50;;;;;;;24.50;67.89;99870.06;5037196;28;20389;-71
2021/07/04 10:57:49;;;;;;;11.75;6.53;;;;;;;24.82;67.24;99876.94;5036789;28;20059;-71
2021/07/04 11:00:16;;;;;;;10.73;4.53;;;;;;;24.99;66.38;99870.47;5057732;28;20029;-72
2021/07/04 11:02:41;;;;;;;6.80;3.45;;;;;;;25.24;65.52;99880.97;5023668;28;20021;-72
2021/07/04 11:05:14;;;;;;;5.57;2.92;;;;;;;25.40;65.19;99884.19;5056757;28;20033;-72
2021/07/04 11:07:52;;;;;;;;;;;;;;;25.55;64.48;99885.78;5057203;28;20551;-72
2021/07/04 11:10:19;;;;;;;5.32;2.40;;;;;;;25.69;63.32;99901.19;5058019;28;19909;-72
2021/07/04 11:12:44;;;;;;;3.78;1.83;;;;;;;25.69;62.79;99889.78;5039723;28;20423;-72
2021/07/04 11:15:13;;;;;;;7.38;2.22;;;;;;;25.72;62.39;99895.47;5031045;28;20034;-72
2021/07/04 11:17:57;;;;;;;4.38;1.60;;;;;;;25.80;62.08;99884.88;5059331;28;20035;-71
2021/07/04 11:20:38;;;;;;;3.92;1.17;;;;;;;25.85;61.65;99887.28;5052456;28;20444;-71
2021/07/04 11:23:19;;;;;;;6.68;1.13;;;;;;;25.96;61.32;99887.25;5041416;28;20028;-71
2021/07/04 11:25:53;;;;;;;5.97;1.25;;;;;;;25.99;61.22;99895.78;5038639;28;20117;-70
2021/07/04 11:28:18;;;;;;;5.47;1.00;;;;;;;25.83;60.82;99889.75;5052787;28;20037;-73
2021/07/04 11:30:54;;;;;;;8.68;2.00;;;;;;;25.93;60.92;99899.47;5056425;28;20021;-74